Time;durP1;ratioP1;P1;durP2;ratioP2;P2;SDS_P1;SDS_P2;PMS_P1;PMS_P2;Temp;Humidity;BMP_temperature;BMP_pressure;BME280_temperature;BME280_humidity;BME280_pressure;Samples;Min_cycle;Max_cycle;Signal;HPM_P1;HPM_P2
2023/10/27 00:04:27;;;;;;;;;;;;;;;12.14;93.66;96990.59;7245928;40;19993;31
2023/10/27 00:09:47;;;;;;;;;;;;;;;12.14;93.99;96996.00;7258021;40;19992;31
2023/10/27 00:15:24;;;;;;;;;;;;;;;12.14;94.80;96993.31;7250714;40;20487;31
2023/10/27 00:20:59;;;;;;;;;;;;;;;12.11;94.43;96991.03;7228199;40;20020;31
2023/10/27 00:26:19;;;;;;;;;;;;;;;12.12;94.35;96984.59;7251223;40;19993;31
2023/10/27 00:31:56;;;;;;;;;;;;;;;12.15;95.17;96984.13;7277289;40;19992;31
2023/10/27 00:37:13;;;;;;;;;;;;;;;12.11;94.46;96988.34;7235976;40;21072;31
2023/10/27 00:42:48;;;;;;;;;;;;;;;12.10;94.43;96988.59;7274835;39;20019;31
2023/10/27 00:53:29;;;;;;;;;;;;;;;12.07;95.01;96978.22;7295975;39;19998;31
2023/10/27 00:59:05;;;;;;;;;;;;;;;12.10;95.69;96984.03;7296707;39;20041;31
2023/10/27 01:04:41;;;;;;;;;;;;;;;12.14;94.76;96974.41;7282303;39;20020;31
2023/10/27 01:10:19;;;;;;;;;;;;;;;12.16;95.45;96971.44;7262673;40;19992;31
2023/10/27 01:15:54;;;;;;;;;;;;;;;12.10;95.61;96967.00;7217974;40;20017;31
2023/10/27 01:21:30;;;;;;;;;;;;;;;12.14;96.10;96962.78;7237140;40;19997;31
2023/10/27 01:27:07;;;;;;;;;;;;;;;12.18;96.46;96958.56;7235254;40;20009;31
2023/10/27 01:32:43;;;;;;;;;;;;;;;12.15;97.05;96954.41;7249417;40;19993;31
2023/10/27 01:38:17;;;;;;;;;;;;;;;12.18;96.67;96936.94;7239201;40;20008;31
2023/10/27 01:43:54;;;;;;;;;;;;;;;12.14;96.88;96941.16;7225974;40;20000;31
2023/10/27 01:49:29;;;;;;;;;;;;;;;12.11;97.92;96938.94;7195191;40;19994;31
2023/10/27 01:54:53;;;;;;;;;;;;;;;12.10;97.65;96932.72;7210227;40;19993;31
2023/10/27 02:00:28;;;;;;;;;;;;;;;12.06;97.65;96930.69;7225235;40;20010;31
2023/10/27 02:05:49;;;;;;;;;;;;;;;12.03;98.33;96928.44;7226819;40;20020;31
2023/10/27 02:11:09;;;;;;;;;;;;;;;12.07;98.47;96924.22;7245034;39;19997;31
2023/10/27 02:16:45;;;;;;;;;;;;;;;12.10;98.36;96919.22;7294878;40;20006;31
2023/10/27 02:22:05;;;;;;;;;;;;;;;12.10;98.29;96907.59;7284154;40;19996;31
2023/10/27 02:27:41;;;;;;;;;;;;;;;12.09;97.79;96912.16;7306016;39;20069;31
2023/10/27 02:33:16;;;;;;;;;;;;;;;12.15;98.11;96895.00;7310406;39;20121;31
2023/10/27 02:38:36;;;;;;;;;;;;;;;12.16;97.46;96890.44;7275029;39;20004;31
2023/10/27 02:44:13;;;;;;;;;;;;;;;12.16;97.94;96901.22;7299944;39;20016;31
2023/10/27 02:49:50;;;;;;;;;;;;;;;12.08;98.39;96888.06;7297835;39;20062;31
2023/10/27 03:06:13;;;;;;;;;;;;;;;12.20;97.78;96853.78;7312050;39;20011;31
2023/10/27 03:16:39;;;;;;;;;;;;;;;12.11;97.27;96890.34;7315119;39;20003;31
2023/10/27 03:27:21;;;;;;;;;;;;;;;11.87;99.43;96892.16;7317105;39;20021;31
2023/10/27 03:37:46;;;;;;;;;;;;;;;11.88;98.76;96880.31;7302396;39;20015;31
2023/10/27 03:48:26;;;;;;;;;;;;;;;11.90;98.78;96880.06;7288121;39;20026;31
2023/10/27 03:54:01;;;;;;;;;;;;;;;11.90;98.88;96878.19;7257644;40;20004;31
2023/10/27 04:04:43;;;;;;;;;;;;;;;11.89;99.07;96878.44;7237780;40;20106;31
2023/10/27 04:15:09;;;;;;;;;;;;;;;11.98;98.25;96869.75;7310850;39;20003;31
2023/10/27 04:25:51;;;;;;;;;;;;;;;11.98;97.85;96871.66;7287906;39;20388;31
2023/10/27 04:31:10;;;;;;;;;;;;;;;11.93;97.67;96863.41;7280279;39;20007;31
2023/10/27 04:36:45;;;;;;;;;;;;;;;11.94;97.81;96865.03;7319633;39;20004;31
2023/10/27 04:47:26;;;;;;;;;;;;;;;11.84;97.67;96864.81;7315105;39;20002;31
2023/10/27 04:52:47;;;;;;;;;;;;;;;11.79;98.43;96861.97;7334584;39;20019;31
2023/10/27 04:58:22;;;;;;;;;;;;;;;11.72;98.38;96857.50;7343882;39;20283;31
2023/10/27 05:03:59;;;;;;;;;;;;;;;11.69;98.74;96849.84;7320415;39;19995;31
2023/10/27 05:09:20;;;;;;;;;;;;;;;11.63;99.22;96837.25;7298885;39;19992;31
2023/10/27 05:14:55;;;;;;;;;;;;;;;11.64;100.00;96841.62;7289001;39;20019;31
2023/10/27 05:25:35;;;;;;;;;;;;;;;11.55;100.00;96839.47;7262723;40;20023;31
2023/10/27 05:30:55;;;;;;;;;;;;;;;11.55;100.00;96840.28;7277177;40;19992;31
2023/10/27 05:36:15;;;;;;;;;;;;;;;11.60;100.00;96842.31;7276792;39;19992;31
2023/10/27 05:41:51;;;;;;;;;;;;;;;11.56;100.00;96833.03;7296994;39;20143;31
2023/10/27 05:47:11;;;;;;;;;;;;;;;11.54;100.00;96844.03;7247936;39;20000;31
2023/10/27 05:52:46;;;;;;;;;;;;;;;11.52;100.00;96843.47;7252633;40;19997;31
2023/10/27 05:58:23;;;;;;;;;;;;;;;11.60;100.00;96847.69;7201982;40;20008;31
2023/10/27 06:03:44;;;;;;;;;;;;;;;11.63;100.00;96849.94;7228872;40;20021;31
2023/10/27 06:09:04;;;;;;;;;;;;;;;11.65;98.05;96862.16;7234612;40;20601;31
2023/10/27 06:14:44;;;;;;;;;;;;;;;11.64;98.20;96862.38;7083913;40;20941;31
2023/10/27 06:20:17;;;;;;;;;;;;;;;11.67;97.42;96873.53;7271885;39;20073;31
2023/10/27 06:25:37;;;;;;;;;;;;;;;11.69;97.46;96879.53;7231918;40;20433;31
2023/10/27 06:31:14;;;;;;;;;;;;;;;11.69;96.82;96892.19;7281822;39;19996;31
2023/10/27 06:36:49;;;;;;;;;;;;;;;11.70;96.62;96886.56;7277808;39;20428;31
2023/10/27 06:42:09;;;;;;;;;;;;;;;11.71;96.13;96896.31;7217000;40;20025;31
2023/10/27 07:08:02;;;;;;;;;;;;;;;11.79;95.17;96934.84;7357397;39;19991;31
2023/10/27 07:18:26;;;;;;;;;;;;;;;11.89;95.08;96949.41;7337595;39;20182;31
2023/10/27 07:24:02;;;;;;;;;;;;;;;11.93;94.39;96976.81;7295548;39;20007;31
2023/10/27 07:34:26;;;;;;;;;;;;;;;11.98;94.41;96987.75;7278898;40;20370;31
2023/10/27 07:45:07;;;;;;;;;;;;;;;12.04;93.50;96979.53;7308854;39;20018;31
2023/10/27 07:55:32;;;;;;;;;;;;;;;12.09;93.08;97025.56;7300150;39;21072;31
2023/10/27 08:01:09;;;;;;;;;;;;;;;12.10;93.20;97039.91;7300365;39;19996;31
2023/10/27 08:06:44;;;;;;;;;;;;;;;12.14;92.46;97039.22;7246363;39;20451;31
2023/10/27 08:12:21;;;;;;;;;;;;;;;12.25;92.72;97051.09;7316457;39;20436;31
2023/10/27 08:17:55;;;;;;;;;;;;;;;12.23;92.08;97053.22;7254626;40;20464;31
2023/10/27 08:28:34;;;;;;;;;;;;;;;12.23;92.85;97069.41;7276087;40;20091;31
2023/10/27 08:34:11;;;;;;;;;;;;;;;12.26;92.45;97084.31;7267351;40;20429;31
2023/10/27 08:39:48;;;;;;;;;;;;;;;12.31;91.84;97068.25;7197844;40;20008;31
2023/10/27 08:45:23;;;;;;;;;;;;;;;12.44;91.38;97085.09;7217693;40;20004;31
2023/10/27 08:50:59;;;;;;;;;;;;;;;12.59;91.88;97104.41;7199133;40;20024;31
2023/10/27 08:56:20;;;;;;;;;;;;;;;12.77;91.25;97108.12;7124454;40;19994;31
2023/10/27 09:01:41;;;;;;;;;;;;;;;12.91;90.59;97110.38;7207711;40;19994;31
2023/10/27 09:07:15;;;;;;;;;;;;;;;12.92;90.68;97113.91;7216404;40;20075;31
2023/10/27 09:12:50;;;;;;;;;;;;;;;12.85;90.15;97118.59;7222558;39;20116;31
2023/10/27 09:18:25;;;;;;;;;;;;;;;12.78;90.61;97121.38;7272192;40;20027;31
2023/10/27 09:24:01;;;;;;;;;;;;;;;12.78;91.31;97131.38;7282058;39;20011;31
2023/10/27 09:29:36;;;;;;;;;;;;;;;12.79;91.76;97133.03;7218989;40;20014;31
2023/10/27 09:35:19;;;;;;;;;;;;;;;12.86;91.42;97141.84;7204299;40;20438;31
2023/10/27 09:40:56;;;;;;;;;;;;;;;13.00;90.31;97151.41;7127959;41;19995;31
2023/10/27 09:46:30;;;;;;;;;;;;;;;13.01;90.54;97151.19;7209637;40;20017;31
2023/10/27 09:52:06;;;;;;;;;;;;;;;12.97;90.41;97160.81;7251159;39;19996;31
2023/10/27 09:57:42;;;;;;;;;;;;;;;13.03;90.30;97173.41;7249303;40;20007;31
2023/10/27 10:03:22;;;;;;;;;;;;;;;13.19;90.64;97180.06;7248389;40;20009;31
2023/10/27 10:08:52;;;;;;;;;;;;;;;13.23;89.59;97186.66;7271693;40;19992;31
2023/10/27 10:14:26;;;;;;;;;;;;;;;13.18;88.61;97200.06;7248157;40;20004;31
2023/10/27 10:20:02;;;;;;;;;;;;;;;13.32;88.42;97192.56;7276081;40;20004;31
2023/10/27 10:25:42;;;;;;;;;;;;;;;13.57;87.48;97195.03;7200123;40;20001;31
2023/10/27 10:31:18;;;;;;;;;;;;;;;13.66;86.53;97183.63;7231789;40;20098;31
2023/10/27 10:36:55;;;;;;;;;;;;;;;13.77;85.80;97192.81;7230363;40;20015;31
2023/10/27 10:42:29;;;;;;;;;;;;;;;13.83;85.40;97187.25;7256319;40;20004;31
2023/10/27 10:48:03;;;;;;;;;;;;;;;13.79;84.43;97198.81;7227502;40;19994;31
2023/10/27 10:53:37;;;;;;;;;;;;;;;13.78;84.35;97199.84;7218036;40;19993;31
2023/10/27 10:58:57;;;;;;;;;;;;;;;13.64;84.96;97214.72;7191254;40;20106;31
2023/10/27 11:04:32;;;;;;;;;;;;;;;13.48;86.20;97214.34;7206904;40;20358;31
2023/10/27 11:10:08;;;;;;;;;;;;;;;13.46;86.73;97199.41;7203336;40;20017;31
2023/10/27 11:15:56;;;;;;;;;;;;;;;13.47;86.21;97195.66;7213059;40;19993;31
2023/10/27 11:21:33;;;;;;;;;;;;;;;13.65;86.01;97205.50;7216986;40;19993;31
2023/10/27 11:27:08;;;;;;;;;;;;;;;13.79;85.50;97182.56;7151949;40;20183;31
2023/10/27 11:32:29;;;;;;;;;;;;;;;13.77;85.41;97195.53;7151709;40;20005;31
2023/10/27 11:37:49;;;;;;;;;;;;;;;13.76;85.10;97194.69;7199776;40;21634;31
2023/10/27 11:43:25;;;;;;;;;;;;;;;13.75;85.81;97197.63;7219295;39;19992;31
2023/10/27 11:49:00;;;;;;;;;;;;;;;13.75;86.27;97198.47;7284620;39;20007;31
2023/10/27 11:54:36;;;;;;;;;;;;;;;13.73;86.93;97205.19;7279471;40;19993;31
2023/10/27 12:00:09;;;;;;;;;;;;;;;13.72;88.26;97209.78;7319121;39;20371;31
2023/10/27 12:05:45;;;;;;;;;;;;;;;13.65;87.90;97224.47;7272452;40;20004;31
2023/10/27 12:11:20;;;;;;;;;;;;;;;13.55;88.94;97211.53;7257766;40;20054;31
2023/10/27 12:16:56;;;;;;;;;;;;;;;13.54;89.90;97218.81;7197985;40;20358;31
2023/10/27 12:22:16;;;;;;;;;;;;;;;13.48;90.73;97219.75;7188820;40;19994;31
2023/10/27 12:27:37;;;;;;;;;;;;;;;13.63;90.81;97215.75;7216473;40;20154;31
2023/10/27 12:33:14;;;;;;;;;;;;;;;13.59;90.69;97203.75;7220583;40;20082;31
2023/10/27 12:38:34;;;;;;;;;;;;;;;13.58;91.07;97212.94;7187862;40;19998;31
2023/10/27 12:43:54;;;;;;;;;;;;;;;13.57;90.86;97217.53;7234375;40;19993;31
2023/10/27 12:49:30;;;;;;;;;;;;;;;13.57;91.43;97222.09;7265277;40;20036;31
2023/10/27 12:54:50;;;;;;;;;;;;;;;13.49;91.93;97220.56;7240889;40;20009;31
2023/10/27 13:05:31;;;;;;;;;;;;;;;13.27;92.46;97247.34;7257835;39;19999;31
2023/10/27 13:11:06;;;;;;;;;;;;;;;13.16;91.81;97231.94;7294189;39;20345;31
2023/10/27 13:16:27;;;;;;;;;;;;;;;13.17;92.01;97216.50;7285479;40;19992;31
2023/10/27 13:22:02;;;;;;;;;;;;;;;13.26;92.40;97215.94;7061965;40;20941;31
2023/10/27 13:27:37;;;;;;;;;;;;;;;13.31;92.38;97218.78;7287932;40;20207;31
2023/10/27 13:32:57;;;;;;;;;;;;;;;13.50;91.20;97233.87;7237619;40;20091;31
2023/10/27 13:38:33;;;;;;;;;;;;;;;13.40;92.41;97243.63;7265848;39;20024;31
2023/10/27 13:48:57;;;;;;;;;;;;;;;13.48;92.01;97235.16;7290438;39;20004;31
2023/10/27 13:59:40;;;;;;;;;;;;;;;13.69;91.45;97247.31;7271923;39;20369;31
2023/10/27 14:10:03;;;;;;;;;;;;;;;13.54;91.20;97264.00;7234264;40;19993;31
2023/10/27 14:15:35;;;;;;;;;;;;;;;13.48;91.23;97256.81;7298998;39;20046;31
2023/10/27 14:21:10;;;;;;;;;;;;;;;13.63;91.73;97256.38;7300336;39;20023;31
2023/10/27 14:26:30;;;;;;;;;;;;;;;13.67;91.42;97268.38;7299885;40;20380;31
2023/10/27 14:32:06;;;;;;;;;;;;;;;13.71;91.07;97258.72;7323885;39;19995;31
2023/10/27 14:37:27;;;;;;;;;;;;;;;13.69;91.17;97264.37;7291257;40;20008;31
2023/10/27 14:42:47;;;;;;;;;;;;;;;13.67;90.75;97261.09;7273052;39;19993;31
2023/10/27 14:48:22;;;;;;;;;;;;;;;13.62;90.97;97266.38;7293254;39;20096;31
2023/10/27 14:53:57;;;;;;;;;;;;;;;13.57;91.00;97281.66;7269774;40;20091;31
2023/10/27 14:59:17;;;;;;;;;;;;;;;13.58;91.30;97294.13;7277106;39;21298;31
2023/10/27 15:04:54;;;;;;;;;;;;;;;13.55;90.67;97279.19;7252931;40;20153;31
2023/10/27 15:10:15;;;;;;;;;;;;;;;13.49;91.21;97277.41;7185262;40;20091;31
2023/10/27 15:15:35;;;;;;;;;;;;;;;13.42;91.53;97285.66;7235716;39;20021;31
2023/10/27 15:21:16;;;;;;;;;;;;;;;13.36;92.04;97277.63;7241507;40;20015;31
2023/10/27 15:26:35;;;;;;;;;;;;;;;13.33;92.27;97289.75;7180193;40;20102;31
2023/10/27 15:32:12;;;;;;;;;;;;;;;13.28;92.53;97289.59;7255406;40;19996;31
2023/10/27 15:37:46;;;;;;;;;;;;;;;13.23;92.61;97303.00;7267744;39;20098;31
2023/10/27 15:43:07;;;;;;;;;;;;;;;13.22;93.12;97293.22;7243769;39;20007;31
2023/10/27 15:48:41;;;;;;;;;;;;;;;13.23;93.48;97297.59;7280958;39;19992;31
2023/10/27 15:54:19;;;;;;;;;;;;;;;13.20;93.38;97297.22;7247898;40;21078;31
2023/10/27 15:59:41;;;;;;;;;;;;;;;13.17;93.07;97309.31;7259043;40;20013;31
2023/10/27 16:05:15;;;;;;;;;;;;;;;13.16;93.32;97310.37;7231346;40;20500;31
2023/10/27 16:10:52;;;;;;;;;;;;;;;13.14;93.09;97317.06;7235404;40;20007;31
2023/10/27 16:16:13;;;;;;;;;;;;;;;13.14;93.48;97317.06;7218750;40;19993;31
2023/10/27 16:21:48;;;;;;;;;;;;;;;13.10;93.74;97324.78;7248992;40;19997;31
2023/10/27 16:27:24;;;;;;;;;;;;;;;13.13;93.56;97320.81;7199952;40;20111;31
2023/10/27 16:32:46;;;;;;;;;;;;;;;13.11;93.48;97321.06;7210079;40;20052;31
2023/10/27 16:38:09;;;;;;;;;;;;;;;13.11;93.35;97325.66;7221988;40;20352;31
2023/10/27 16:43:44;;;;;;;;;;;;;;;13.09;93.53;97328.53;7249632;40;20496;31
2023/10/27 16:49:02;;;;;;;;;;;;;;;13.08;93.44;97321.47;7147275;40;19995;31
2023/10/27 16:54:37;;;;;;;;;;;;;;;13.08;93.92;97329.56;7203361;40;20675;31
2023/10/27 17:00:15;;;;;;;;;;;;;;;13.07;93.55;97326.06;7238900;40;20001;31
2023/10/27 17:05:50;;;;;;;;;;;;;;;13.04;93.87;97323.81;7257728;39;20440;31
2023/10/27 17:11:11;;;;;;;;;;;;;;;12.98;93.91;97323.91;7283355;39;21171;31
2023/10/27 17:16:49;;;;;;;;;;;;;;;12.94;93.75;97325.41;7239361;40;20680;31
2023/10/27 17:22:08;;;;;;;;;;;;;;;12.93;93.75;97327.28;7219426;40;20010;31
2023/10/27 17:27:28;;;;;;;;;;;;;;;12.88;93.62;97337.12;7258128;40;21386;31
2023/10/27 17:33:05;;;;;;;;;;;;;;;12.84;93.38;97335.94;7293118;39;20008;31
2023/10/27 17:43:29;;;;;;;;;;;;;;;12.84;92.67;97338.63;7235549;40;19992;31
2023/10/27 17:54:11;;;;;;;;;;;;;;;12.81;92.59;97344.50;7294664;39;20027;31
2023/10/27 18:04:51;;;;;;;;;;;;;;;12.80;92.85;97353.66;7401211;39;20533;31
2023/10/27 18:10:28;;;;;;;;;;;;;;;12.75;92.29;97353.50;7361231;39;20660;31
2023/10/27 18:16:05;;;;;;;;;;;;;;;12.72;92.54;97354.81;7269913;39;20539;31
2023/10/27 18:21:25;;;;;;;;;;;;;;;12.70;92.47;97361.47;7218442;40;20317;31
2023/10/27 18:27:00;;;;;;;;;;;;;;;12.70;92.67;97354.19;7207776;40;20009;31
2023/10/27 18:32:36;;;;;;;;;;;;;;;12.73;92.66;97352.91;7237314;40;20004;31
2023/10/27 18:37:56;;;;;;;;;;;;;;;12.73;92.40;97353.72;7217417;40;20399;31
2023/10/27 18:43:33;;;;;;;;;;;;;;;12.71;92.11;97355.84;7196495;40;19994;31
2023/10/27 18:53:58;;;;;;;;;;;;;;;12.77;91.18;97357.63;7195556;40;20552;31
2023/10/27 19:04:40;;;;;;;;;;;;;;;12.77;91.36;97351.41;7316607;39;20020;31
2023/10/27 19:15:03;;;;;;;;;;;;;;;12.68;91.11;97353.56;7300237;39;20568;31
2023/10/27 19:20:39;;;;;;;;;;;;;;;12.59;91.82;97346.84;7296171;39;20008;31
2023/10/27 19:26:22;;;;;;;;;;;;;;;12.58;91.94;97350.59;7281049;39;20532;31
2023/10/27 19:31:58;;;;;;;;;;;;;;;12.51;92.58;97368.72;7281302;40;19993;31
2023/10/27 19:37:35;;;;;;;;;;;;;;;12.46;92.33;97374.00;7270330;40;19993;31
2023/10/27 19:42:56;;;;;;;;;;;;;;;12.41;92.77;97373.84;7248160;40;20004;31
2023/10/27 19:48:33;;;;;;;;;;;;;;;12.41;93.01;97377.38;7259126;39;20557;31
2023/10/27 19:54:08;;;;;;;;;;;;;;;12.39;93.07;97386.72;7250846;39;19992;31
2023/10/27 19:59:28;;;;;;;;;;;;;;;12.37;93.17;97392.38;7257675;39;20383;31
2023/10/27 20:04:48;;;;;;;;;;;;;;;12.41;93.49;97395.47;7242963;40;20110;31
2023/10/27 20:10:24;;;;;;;;;;;;;;;12.39;93.13;97381.31;7246423;40;20613;31
2023/10/27 20:15:59;;;;;;;;;;;;;;;12.40;93.50;97380.28;7257950;39;21199;31
2023/10/27 20:26:40;;;;;;;;;;;;;;;12.45;92.84;97396.66;7277221;40;19993;31
2023/10/27 20:32:01;;;;;;;;;;;;;;;12.41;93.11;97393.59;7208724;40;20523;31
2023/10/27 20:37:23;;;;;;;;;;;;;;;12.42;92.80;97397.09;7026836;40;21139;31
2023/10/27 20:42:58;;;;;;;;;;;;;;;12.40;93.20;97393.81;7280727;39;20545;31
2023/10/27 20:48:18;;;;;;;;;;;;;;;12.32;93.09;97404.91;7204656;40;20456;31
2023/10/27 20:53:54;;;;;;;;;;;;;;;12.26;93.81;97417.41;7244713;40;20484;31
2023/10/27 21:04:34;;;;;;;;;;;;;;;12.15;94.22;97418.13;7271256;40;20012;31
2023/10/27 21:09:55;;;;;;;;;;;;;;;12.17;94.12;97416.03;7284078;39;19992;31
2023/10/27 21:15:15;;;;;;;;;;;;;;;12.14;93.31;97416.47;7305126;39;20497;31
2023/10/27 21:25:55;;;;;;;;;;;;;;;12.20;93.37;97424.50;7257936;40;20021;31
2023/10/27 21:36:21;;;;;;;;;;;;;;;12.13;94.30;97412.09;7265343;39;20667;31
2023/10/27 21:47:00;;;;;;;;;;;;;;;12.12;94.27;97426.66;7339032;39;20455;31
2023/10/27 21:57:40;;;;;;;;;;;;;;;12.17;94.32;97434.94;7316265;39;20538;31
2023/10/27 22:08:21;;;;;;;;;;;;;;;12.13;94.62;97458.03;7310027;39;20507;31
2023/10/27 22:13:44;;;;;;;;;;;;;;;12.12;94.66;97464.47;7279093;40;20003;31
2023/10/27 22:19:04;;;;;;;;;;;;;;;12.11;94.22;97460.12;7267971;40;20522;31
2023/10/27 22:24:39;;;;;;;;;;;;;;;12.07;94.67;97459.72;7278130;40;20436;31
2023/10/27 22:30:14;;;;;;;;;;;;;;;12.05;95.19;97469.09;7281246;39;20490;31
2023/10/27 22:35:36;;;;;;;;;;;;;;;12.04;95.65;97479.06;7294902;39;19992;31
2023/10/27 22:41:12;;;;;;;;;;;;;;;12.05;96.64;97483.44;7333784;39;20007;31
2023/10/27 22:46:48;;;;;;;;;;;;;;;12.02;96.94;97478.44;7247189;40;20007;31
2023/10/27 22:52:24;;;;;;;;;;;;;;;12.08;96.43;97490.25;7247149;39;20463;31
2023/10/27 22:58:00;;;;;;;;;;;;;;;12.13;97.03;97482.31;7241739;39;20539;31
2023/10/27 23:03:36;;;;;;;;;;;;;;;12.11;96.58;97489.84;7242492;40;20467;31
2023/10/27 23:09:11;;;;;;;;;;;;;;;12.01;97.28;97481.38;7243967;40;20615;31
2023/10/27 23:14:47;;;;;;;;;;;;;;;12.04;97.00;97486.34;7226820;40;20004;31
2023/10/27 23:20:12;;;;;;;;;;;;;;;12.05;97.09;97483.44;7240201;40;19992;31
2023/10/27 23:25:44;;;;;;;;;;;;;;;12.06;97.91;97478.84;7220985;40;20064;31
2023/10/27 23:31:22;;;;;;;;;;;;;;;12.01;96.93;97475.97;7237966;40;20415;31
2023/10/27 23:36:42;;;;;;;;;;;;;;;12.00;97.42;97482.41;7218141;40;19993;31
2023/10/27 23:42:02;;;;;;;;;;;;;;;11.99;97.57;97488.84;7225719;40;20519;31
2023/10/27 23:52:44;;;;;;;;;;;;;;;11.92;96.43;97490.78;7229216;40;20534;31
2023/10/27 23:58:19;;;;;;;;;;;;;;;11.93;96.29;97487.88;7227824;40;19992;31
